Time;durP1;ratioP1;P1;durP2;ratioP2;P2;SDS_P1;SDS_P2;PMS_P1;PMS_P2;Temp;Humidity;BMP_temperature;BMP_pressure;BME280_temperature;BME280_humidity;BME280_pressure;Samples;Min_cycle;Max_cycle;Signal;HPM_P1;HPM_P2
2023/07/02 00:01:51;;;;;;;10.00;5.15;;;;;;;;;;5090435;28;20442;-76
2023/07/02 00:04:19;;;;;;;6.47;4.43;;;;;;;;;;5092090;28;20030;-76
2023/07/02 00:06:48;;;;;;;6.78;5.05;;;;;;;;;;5090742;28;20085;-77
2023/07/02 00:09:14;;;;;;;7.50;4.57;;;;;;;;;;5104353;28;20027;-77
2023/07/02 00:11:40;;;;;;;7.82;4.82;;;;;;;;;;5097847;28;20024;-76
2023/07/02 00:14:06;;;;;;;9.43;4.85;;;;;;;;;;5097674;28;20024;-77
2023/07/02 00:16:32;;;;;;;4.68;4.18;;;;;;;;;;5096995;28;20077;-77
2023/07/02 00:18:57;;;;;;;9.18;4.78;;;;;;;;;;5096010;28;20039;-77
2023/07/02 00:21:27;;;;;;;5.82;4.30;;;;;;;;;;5098982;28;20051;-78
2023/07/02 00:23:53;;;;;;;6.75;4.32;;;;;;;;;;5104662;28;20034;-77
2023/07/02 00:26:18;;;;;;;4.72;4.10;;;;;;;;;;5104195;28;20027;-76
2023/07/02 00:28:44;;;;;;;8.18;4.72;;;;;;;;;;5098384;28;20049;-76
2023/07/02 00:31:09;;;;;;;4.30;3.90;;;;;;;;;;5093499;28;20510;-75
2023/07/02 00:33:35;;;;;;;6.53;4.35;;;;;;;;;;5093354;28;20366;-77
2023/07/02 00:36:00;;;;;;;8.18;4.85;;;;;;;;;;5095654;28;20035;-77
2023/07/02 00:38:26;;;;;;;5.65;4.25;;;;;;;;;;5099915;28;20027;-78
2023/07/02 00:40:51;;;;;;;7.32;4.93;;;;;;;;;;5093168;28;20090;-76
2023/07/02 00:43:16;;;;;;;7.28;4.88;;;;;;;;;;5103124;28;20602;-76
2023/07/02 00:45:42;;;;;;;10.55;5.38;;;;;;;;;;5092384;28;20032;-77
2023/07/02 00:48:07;;;;;;;5.88;4.30;;;;;;;;;;5095171;28;20027;-75
2023/07/02 00:50:32;;;;;;;7.72;5.47;;;;;;;;;;5093983;27;20027;-74
2023/07/02 00:52:58;;;;;;;7.32;5.05;;;;;;;;;;5103923;28;20388;-74
2023/07/02 00:55:23;;;;;;;7.35;4.85;;;;;;;;;;5102893;28;20015;-77
2023/07/02 00:57:49;;;;;;;12.23;5.38;;;;;;;;;;5102816;28;20447;-75
2023/07/02 01:00:14;;;;;;;6.65;5.30;;;;;;;;;;5103125;28;20031;-78
2023/07/02 01:02:43;;;;;;;8.15;5.55;;;;;;;;;;5103528;28;20111;-78
2023/07/02 01:05:21;;;;;;;10.98;5.47;;;;;;;;;;5092757;28;20038;-76
2023/07/02 01:07:46;;;;;;;9.60;5.65;;;;;;;;;;5101174;28;20061;-75
2023/07/02 01:10:12;;;;;;;8.82;5.70;;;;;;;;;;5092473;27;20023;-76
2023/07/02 01:12:38;;;;;;;7.15;6.28;;;;;;;;;;5102918;28;20026;-78
2023/07/02 01:15:04;;;;;;;8.57;6.15;;;;;;;;;;5103539;28;20047;-76
2023/07/02 01:17:39;;;;;;;14.88;6.50;;;;;;;;;;5103185;28;20027;-78
2023/07/02 01:20:08;;;;;;;7.20;5.85;;;;;;;;;;5091842;28;20048;-75
2023/07/02 01:22:33;;;;;;;8.60;6.30;;;;;;;;;;5100399;28;20057;-77
2023/07/02 01:24:59;;;;;;;8.98;6.25;;;;;;;;;;5092938;27;20112;-75
2023/07/02 01:27:27;;;;;;;11.20;6.15;;;;;;;;;;5099838;28;21020;-76
2023/07/02 01:29:53;;;;;;;17.13;6.57;;;;;;;;;;5092822;28;20023;-78
2023/07/02 01:32:18;;;;;;;10.15;6.00;;;;;;;;;;5101833;28;20396;-77
2023/07/02 01:34:43;;;;;;;11.70;7.07;;;;;;;;;;5091357;28;20027;-76
2023/07/02 01:37:09;;;;;;;10.23;6.40;;;;;;;;;;5099369;28;20105;-75
2023/07/02 01:39:35;;;;;;;10.50;6.53;;;;;;;;;;5093200;28;20443;-76
2023/07/02 01:42:15;;;;;;;9.50;6.47;;;;;;;;;;5097060;28;20106;-76
2023/07/02 01:44:41;;;;;;;7.45;6.30;;;;;;;;;;5100626;28;20031;-76
2023/07/02 01:47:06;;;;;;;8.43;6.10;;;;;;;;;;5102597;28;20042;-74
2023/07/02 01:49:32;;;;;;;7.85;6.30;;;;;;;;;;5093799;28;20035;-75
2023/07/02 01:51:57;;;;;;;6.95;5.10;;;;;;;;;;5099022;28;20343;-76
2023/07/02 01:54:24;;;;;;;7.68;5.78;;;;;;;;;;5093355;28;20027;-76
2023/07/02 01:56:49;;;;;;;7.97;5.45;;;;;;;;;;5099519;27;20399;-76
2023/07/02 01:59:16;;;;;;;7.53;5.20;;;;;;;;;;5099754;28;20118;-75
2023/07/02 02:01:41;;;;;;;5.95;5.18;;;;;;;;;;5091985;27;20020;-77
2023/07/02 02:04:07;;;;;;;10.10;5.65;;;;;;;;;;5096447;27;20042;-75
2023/07/02 02:06:33;;;;;;;7.68;4.78;;;;;;;;;;5097482;28;20097;-77
2023/07/02 02:08:59;;;;;;;6.35;5.60;;;;;;;;;;5093886;28;20019;-76
2023/07/02 02:11:24;;;;;;;5.82;4.78;;;;;;;;;;5093789;28;20020;-78
2023/07/02 02:13:49;;;;;;;6.57;4.65;;;;;;;;;;5095686;28;20058;-76
2023/07/02 02:16:15;;;;;;;5.85;4.95;;;;;;;;;;5101752;28;20024;-75
2023/07/02 02:18:41;;;;;;;7.50;4.80;;;;;;;;;;5097864;27;20073;-76
2023/07/02 02:21:06;;;;;;;10.77;4.78;;;;;;;;;;5095401;28;20034;-75
2023/07/02 02:23:32;;;;;;;5.13;4.60;;;;;;;;;;5096330;27;20034;-76
2023/07/02 02:25:57;;;;;;;7.63;5.30;;;;;;;;;;5090794;28;20020;-76
2023/07/02 02:28:22;;;;;;;7.38;5.50;;;;;;;;;;5097066;27;20076;-78
2023/07/02 02:30:48;;;;;;;8.02;5.28;;;;;;;;;;5092829;28;20031;-78
2023/07/02 02:33:13;;;;;;;7.50;5.43;;;;;;;;;;5098693;28;20028;-77
2023/07/02 02:35:38;;;;;;;9.52;6.53;;;;;;;;;;5092358;28;20042;-79
2023/07/02 02:38:07;;;;;;;11.30;6.50;;;;;;;;;;5101247;28;20519;-77
2023/07/02 02:40:32;;;;;;;8.47;6.03;;;;;;;;;;5101582;28;20031;-76
2023/07/02 02:42:57;;;;;;;13.00;7.40;;;;;;;;;;5101165;28;20102;-78
2023/07/02 02:45:23;;;;;;;12.70;7.05;;;;;;;;;;5092461;28;20051;-78
2023/07/02 02:47:48;;;;;;;8.77;6.00;;;;;;;;;;5088488;28;20015;-78
2023/07/02 02:50:13;;;;;;;10.43;7.15;;;;;;;;;;5088377;28;20035;-77
2023/07/02 02:52:39;;;;;;;9.57;6.43;;;;;;;;;;5086921;28;20042;-77
2023/07/02 02:55:06;;;;;;;7.82;7.03;;;;;;;;;;5084538;28;20671;-75
2023/07/02 02:57:31;;;;;;;9.63;6.82;;;;;;;;;;5086138;28;20026;-74
2023/07/02 02:59:56;;;;;;;8.45;6.75;;;;;;;;;;5083750;28;20032;-75
2023/07/02 03:02:22;;;;;;;11.35;7.72;;;;;;;;;;5080088;28;20063;-77
2023/07/02 03:04:49;;;;;;;7.93;6.80;;;;;;;;;;5087313;28;20474;-75
2023/07/02 03:07:14;;;;;;;11.25;7.40;;;;;;;;;;5092528;28;20447;-78
2023/07/02 03:09:39;;;;;;;8.55;7.65;;;;;;;;;;5096454;28;20038;-76
2023/07/02 03:12:06;;;;;;;9.00;6.88;;;;;;;;;;5100262;28;20083;-75
2023/07/02 03:14:32;;;;;;;10.57;7.25;;;;;;;;;;5099425;28;20074;-78
2023/07/02 03:16:57;;;;;;;11.93;7.22;;;;;;;;;;5093059;28;20033;-76
2023/07/02 03:19:22;;;;;;;8.25;6.90;;;;;;;;;;5092390;28;20709;-77
2023/07/02 03:21:48;;;;;;;9.90;7.18;;;;;;;;;;5095621;28;20494;-79
2023/07/02 03:24:13;;;;;;;11.02;6.45;;;;;;;;;;5100872;28;20031;-78
2023/07/02 03:26:39;;;;;;;7.88;6.00;;;;;;;;;;5098851;28;20076;-78
2023/07/02 03:29:04;;;;;;;9.20;6.63;;;;;;;;;;5096841;28;20365;-77
2023/07/02 03:31:30;;;;;;;7.22;6.43;;;;;;;;;;5093546;28;20031;-76
2023/07/02 03:33:55;;;;;;;9.43;7.18;;;;;;;;;;5096794;28;20019;-76
2023/07/02 03:36:20;;;;;;;9.00;6.53;;;;;;;;;;5093615;28;20024;-77
2023/07/02 03:38:46;;;;;;;8.02;6.65;;;;;;;;;;5089126;28;20031;-76
2023/07/02 03:41:11;;;;;;;10.75;7.32;;;;;;;;;;5085297;28;20466;-76
2023/07/02 03:43:36;;;;;;;13.18;7.13;;;;;;;;;;5085591;28;20307;-78
2023/07/02 03:46:02;;;;;;;12.23;6.88;;;;;;;;;;5082760;28;20328;-76
2023/07/02 03:48:27;;;;;;;12.40;6.50;;;;;;;;;;5084924;28;20773;-77
2023/07/02 03:50:52;;;;;;;8.27;6.30;;;;;;;;;;5090439;28;20127;-77
2023/07/02 03:53:18;;;;;;;11.15;6.40;;;;;;;;;;5099498;28;20032;-79
2023/07/02 03:55:43;;;;;;;9.52;6.57;;;;;;;;;;5099784;28;20032;-77
2023/07/02 03:58:08;;;;;;;9.93;6.82;;;;;;;;;;5099358;28;20034;-76
2023/07/02 04:00:34;;;;;;;9.90;6.85;;;;;;;;;;5090170;28;20042;-77
2023/07/02 04:02:59;;;;;;;12.10;6.07;;;;;;;;;;5083530;28;20421;-77
2023/07/02 04:05:27;;;;;;;11.93;7.00;;;;;;;;;;5087310;28;20026;-76
2023/07/02 04:07:53;;;;;;;11.02;6.68;;;;;;;;;;5099960;28;20051;-76
2023/07/02 04:10:18;;;;;;;10.80;6.15;;;;;;;;;;5099300;28;20024;-75
2023/07/02 04:12:44;;;;;;;8.18;6.82;;;;;;;;;;5100205;28;20483;-76
2023/07/02 04:15:10;;;;;;;9.43;6.55;;;;;;;;;;5099543;28;20030;-76
2023/07/02 04:17:35;;;;;;;8.90;6.55;;;;;;;;;;5100072;28;20016;-76
2023/07/02 04:20:03;;;;;;;9.40;6.30;;;;;;;;;;5091317;28;20036;-76
2023/07/02 04:22:28;;;;;;;8.75;5.88;;;;;;;;;;5098134;28;20103;-78
2023/07/02 04:24:53;;;;;;;9.82;6.93;;;;;;;;;;5092101;28;20463;-76
2023/07/02 04:27:19;;;;;;;10.38;7.00;;;;;;;;;;5095445;28;20442;-76
2023/07/02 04:29:44;;;;;;;9.25;7.00;;;;;;;;;;5101110;28;20028;-77
2023/07/02 04:32:09;;;;;;;9.50;7.22;;;;;;;;;;5098471;28;20137;-75
2023/07/02 04:34:36;;;;;;;10.73;7.30;;;;;;;;;;5094228;28;20023;-74
2023/07/02 04:37:03;;;;;;;11.43;6.30;;;;;;;;;;5094531;28;20383;-76
2023/07/02 04:39:29;;;;;;;9.80;6.82;;;;;;;;;;5098280;28;20460;-78
2023/07/02 04:41:54;;;;;;;7.78;6.80;;;;;;;;;;5099655;28;20031;-75
2023/07/02 04:44:22;;;;;;;7.85;6.70;;;;;;;;;;5092074;28;20019;-77
2023/07/02 04:46:48;;;;;;;7.82;6.65;;;;;;;;;;5100174;28;20015;-76
2023/07/02 04:49:13;;;;;;;8.70;6.95;;;;;;;;;;5099845;28;20031;-76
2023/07/02 04:51:39;;;;;;;11.88;7.03;;;;;;;;;;5096707;28;20055;-75
2023/07/02 04:54:04;;;;;;;9.57;6.85;;;;;;;;;;5103992;27;20105;-76
2023/07/02 04:56:29;;;;;;;8.55;6.30;;;;;;;;;;5102842;27;20433;-76
2023/07/02 04:58:55;;;;;;;7.13;6.32;;;;;;;;;;5103091;28;20342;-77
2023/07/02 05:01:20;;;;;;;7.30;6.53;;;;;;;;;;5103962;27;20032;-78
2023/07/02 05:03:45;;;;;;;8.40;6.72;;;;;;;;;;5097886;28;20034;-78
2023/07/02 05:06:11;;;;;;;8.10;6.32;;;;;;;;;;5087636;28;20058;-77
2023/07/02 05:08:36;;;;;;;10.30;7.30;;;;;;;;;;5088757;28;20126;-77
2023/07/02 05:11:01;;;;;;;9.00;7.10;;;;;;;;;;5084610;28;20036;-76
2023/07/02 05:13:27;;;;;;;9.35;7.43;;;;;;;;;;5088460;28;20023;-80
2023/07/02 05:15:53;;;;;;;12.38;8.55;;;;;;;;;;5092352;28;20123;-77
2023/07/02 05:18:18;;;;;;;9.88;7.00;;;;;;;;;;5102231;28;20031;-77
2023/07/02 05:20:43;;;;;;;11.68;8.27;;;;;;;;;;5092533;28;20031;-77
2023/07/02 05:23:09;;;;;;;10.88;7.10;;;;;;;;;;5101130;28;20362;-77
2023/07/02 05:25:34;;;;;;;15.05;7.53;;;;;;;;;;5102475;28;20016;-77
2023/07/02 05:27:59;;;;;;;9.27;7.43;;;;;;;;;;5099620;28;20023;-76
2023/07/02 05:30:25;;;;;;;10.65;7.28;;;;;;;;;;5100566;28;20027;-77
2023/07/02 05:32:50;;;;;;;11.95;6.78;;;;;;;;;;5102662;28;20058;-77
2023/07/02 05:35:15;;;;;;;13.02;6.63;;;;;;;;;;5093138;28;20443;-75
2023/07/02 05:37:41;;;;;;;8.65;6.70;;;;;;;;;;5098495;28;20042;-79
2023/07/02 05:40:06;;;;;;;9.75;7.22;;;;;;;;;;5102475;28;20066;-78
2023/07/02 05:42:32;;;;;;;9.43;7.60;;;;;;;;;;5099902;28;20398;-79
2023/07/02 05:44:57;;;;;;;8.60;7.70;;;;;;;;;;5090154;28;20020;-77
2023/07/02 05:47:22;;;;;;;10.18;7.07;;;;;;;;;;5087661;28;20036;-77
2023/07/02 05:49:48;;;;;;;11.85;7.40;;;;;;;;;;5094399;28;20123;-81
2023/07/02 05:52:13;;;;;;;10.68;6.97;;;;;;;;;;5089401;28;20127;-80
2023/07/02 05:54:39;;;;;;;8.93;6.88;;;;;;;;;;5099235;27;20032;-81
2023/07/02 05:57:05;;;;;;;8.32;6.68;;;;;;;;;;5096723;28;20439;-78
2023/07/02 05:59:30;;;;;;;7.97;6.80;;;;;;;;;;5101117;28;20117;-77
2023/07/02 06:01:55;;;;;;;10.45;6.25;;;;;;;;;;5092086;28;20430;-78
2023/07/02 06:04:21;;;;;;;8.57;6.15;;;;;;;;;;5084847;28;20462;-77
2023/07/02 06:06:46;;;;;;;8.82;5.53;;;;;;;;;;5085241;28;20398;-77
2023/07/02 06:09:11;;;;;;;7.10;6.15;;;;;;;;;;5084997;28;20098;-78
2023/07/02 06:11:38;;;;;;;9.77;6.07;;;;;;;;;;5087508;28;20030;-78
2023/07/02 06:14:03;;;;;;;7.07;5.63;;;;;;;;;;5099744;27;20463;-76
2023/07/02 06:16:28;;;;;;;7.63;6.20;;;;;;;;;;5083383;28;20034;-80
2023/07/02 06:18:54;;;;;;;7.63;5.88;;;;;;;;;;5082402;28;20908;-77
2023/07/02 06:21:20;;;;;;;6.38;5.50;;;;;;;;;;5086788;28;20062;-81
2023/07/02 06:23:45;;;;;;;7.55;5.50;;;;;;;;;;5085048;28;20027;-78
2023/07/02 06:26:11;;;;;;;8.38;6.15;;;;;;;;;;5083968;28;20020;-81
2023/07/02 06:28:36;;;;;;;7.70;6.30;;;;;;;;;;5086445;28;20076;-76
2023/07/02 06:31:02;;;;;;;7.93;6.30;;;;;;;;;;5095662;28;20042;-78
2023/07/02 06:33:27;;;;;;;8.00;5.88;;;;;;;;;;5099040;28;20027;-78
2023/07/02 06:35:52;;;;;;;8.90;6.03;;;;;;;;;;5091377;28;20035;-77
2023/07/02 06:38:18;;;;;;;8.25;5.70;;;;;;;;;;5100509;28;20357;-78
2023/07/02 06:40:43;;;;;;;9.50;6.13;;;;;;;;;;5086921;28;20032;-78
2023/07/02 06:43:08;;;;;;;7.45;5.57;;;;;;;;;;5095394;28;20039;-78
2023/07/02 06:45:34;;;;;;;7.88;5.90;;;;;;;;;;5101145;28;20031;-79
2023/07/02 06:47:59;;;;;;;8.38;5.75;;;;;;;;;;5099741;28;20513;-80
2023/07/02 06:50:24;;;;;;;7.95;5.70;;;;;;;;;;5090642;28;20024;-82
2023/07/02 06:52:50;;;;;;;9.90;6.10;;;;;;;;;;5098776;28;20031;-78
2023/07/02 06:55:15;;;;;;;6.43;5.72;;;;;;;;;;5097941;28;20109;-75
2023/07/02 06:57:47;;;;;;;7.72;6.07;;;;;;;;;;5094360;27;20035;-78
2023/07/02 07:00:13;;;;;;;8.27;5.97;;;;;;;;;;5095738;28;20035;-77
2023/07/02 07:02:38;;;;;;;7.38;5.80;;;;;;;;;;5101381;28;20027;-79
2023/07/02 07:05:04;;;;;;;10.23;6.15;;;;;;;;;;5092047;28;20035;-78
2023/07/02 07:07:29;;;;;;;8.10;6.57;;;;;;;;;;5094329;28;20052;-77
2023/07/02 07:09:55;;;;;;;8.07;5.70;;;;;;;;;;5098793;28;20473;-75
2023/07/02 07:12:20;;;;;;;7.53;6.10;;;;;;;;;;5098006;28;20020;-77
2023/07/02 07:14:46;;;;;;;8.52;6.47;;;;;;;;;;5099666;28;20046;-78
2023/07/02 07:17:11;;;;;;;9.50;6.53;;;;;;;;;;5083350;28;20027;-78
2023/07/02 07:19:36;;;;;;;6.57;5.82;;;;;;;;;;5087061;28;20042;-78
2023/07/02 07:22:02;;;;;;;7.82;5.78;;;;;;;;;;5092656;28;20096;-76
2023/07/02 07:24:27;;;;;;;8.23;5.95;;;;;;;;;;5097519;28;20023;-77
2023/07/02 07:26:52;;;;;;;6.43;5.63;;;;;;;;;;5094112;28;20420;-78
2023/07/02 07:29:18;;;;;;;7.78;5.32;;;;;;;;;;5084146;28;20074;-78
2023/07/02 07:31:43;;;;;;;6.95;5.88;;;;;;;;;;5091829;28;20030;-78
2023/07/02 07:34:09;;;;;;;8.18;5.68;;;;;;;;;;5095808;28;20055;-78
2023/07/02 07:36:34;;;;;;;7.95;6.07;;;;;;;;;;5093199;28;20362;-76
2023/07/02 07:38:59;;;;;;;9.05;6.53;;;;;;;;;;5089045;28;20036;-76
2023/07/02 07:41:26;;;;;;;8.18;5.45;;;;;;;;;;5099114;28;20024;-77
2023/07/02 07:43:51;;;;;;;8.82;5.88;;;;;;;;;;5091509;28;20100;-75
2023/07/02 07:46:16;;;;;;;8.85;6.30;;;;;;;;;;5087481;28;20036;-76
2023/07/02 07:48:42;;;;;;;7.20;5.43;;;;;;;;;;5091033;28;20036;-76
2023/07/02 07:51:07;;;;;;;6.85;5.53;;;;;;;;;;5087207;28;20110;-77
2023/07/02 07:53:32;;;;;;;9.70;6.03;;;;;;;;;;5096619;28;20070;-77
2023/07/02 07:55:58;;;;;;;7.53;5.50;;;;;;;;;;5098650;28;20043;-77
2023/07/02 07:58:24;;;;;;;8.38;5.55;;;;;;;;;;5099344;28;20019;-78
2023/07/02 08:00:49;;;;;;;6.80;5.85;;;;;;;;;;5098566;28;20430;-77
2023/07/02 08:03:14;;;;;;;7.60;6.10;;;;;;;;;;5089323;28;20085;-79
2023/07/02 08:05:40;;;;;;;6.63;5.90;;;;;;;;;;5084060;28;20023;-77
2023/07/02 08:08:05;;;;;;;6.30;5.55;;;;;;;;;;5083777;28;20102;-78
2023/07/02 08:10:30;;;;;;;7.15;6.00;;;;;;;;;;5084828;28;20418;-77
2023/07/02 08:12:56;;;;;;;7.18;5.30;;;;;;;;;;5086182;28;20031;-76
2023/07/02 08:15:22;;;;;;;6.00;5.18;;;;;;;;;;5083438;28;20034;-75
2023/07/02 08:17:47;;;;;;;7.70;5.32;;;;;;;;;;5083759;28;20034;-79
2023/07/02 08:20:12;;;;;;;6.53;5.30;;;;;;;;;;5084363;28;20328;-77
2023/07/02 08:22:38;;;;;;;9.85;5.55;;;;;;;;;;5090420;28;20040;-77
2023/07/02 08:25:04;;;;;;;6.20;5.30;;;;;;;;;;5086455;28;20020;-75
2023/07/02 08:27:30;;;;;;;5.43;4.93;;;;;;;;;;5094527;27;20034;-79
2023/07/02 08:29:55;;;;;;;7.65;5.47;;;;;;;;;;5089768;28;20024;-77
2023/07/02 08:32:20;;;;;;;6.93;5.60;;;;;;;;;;5086592;28;20052;-76
2023/07/02 08:34:46;;;;;;;6.05;4.82;;;;;;;;;;5084910;28;20074;-77
2023/07/02 08:37:11;;;;;;;6.22;5.53;;;;;;;;;;5086838;28;20498;-76
2023/07/02 08:39:39;;;;;;;6.13;5.53;;;;;;;;;;5089577;28;20028;-78
2023/07/02 08:42:05;;;;;;;6.03;5.43;;;;;;;;;;5099064;28;20023;-76
2023/07/02 08:44:30;;;;;;;5.82;5.22;;;;;;;;;;5102033;27;20024;-78
2023/07/02 08:46:56;;;;;;;7.85;6.03;;;;;;;;;;5099364;28;20078;-76
2023/07/02 08:49:22;;;;;;;5.72;5.13;;;;;;;;;;5099569;28;20015;-79
2023/07/02 08:51:48;;;;;;;7.18;5.38;;;;;;;;;;5089377;28;20179;-79
2023/07/02 08:54:14;;;;;;;7.35;6.07;;;;;;;;;;5099629;28;20027;-76
2023/07/02 08:56:39;;;;;;;6.05;5.45;;;;;;;;;;5103512;28;20032;-76
2023/07/02 08:59:08;;;;;;;8.70;5.70;;;;;;;;;;5101989;27;20443;-77
2023/07/02 09:01:44;;;;;;;6.85;5.60;;;;;;;;;;5088361;27;20028;-79
2023/07/02 09:04:14;;;;;;;6.00;5.40;;;;;;;;;;5096353;28;20081;-77
2023/07/02 09:06:40;;;;;;;7.28;6.00;;;;;;;;;;5094270;27;20469;-80
2023/07/02 09:09:05;;;;;;;6.53;5.82;;;;;;;;;;5101990;28;20031;-78
2023/07/02 09:11:31;;;;;;;8.93;6.18;;;;;;;;;;5091474;28;20023;-78
2023/07/02 09:14:00;;;;;;;7.40;6.35;;;;;;;;;;5092682;28;20028;-81
2023/07/02 09:16:28;;;;;;;7.03;6.10;;;;;;;;;;5092378;27;20385;-78
2023/07/02 09:19:07;;;;;;;9.03;6.37;;;;;;;;;;5099969;28;20120;-78
2023/07/02 09:21:41;;;;;;;7.82;6.80;;;;;;;;;;5092775;28;20034;-80
2023/07/02 09:24:13;;;;;;;12.73;6.28;;;;;;;;;;5100439;28;20012;-79
2023/07/02 09:26:42;;;;;;;10.82;6.75;;;;;;;;;;5101463;28;20019;-78
2023/07/02 09:29:07;;;;;;;9.68;6.25;;;;;;;;;;5092431;28;20108;-77
2023/07/02 09:31:42;;;;;;;8.52;6.53;;;;;;;;;;5084144;28;20081;-78
2023/07/02 09:34:08;;;;;;;9.18;6.25;;;;;;;;;;5090444;28;20110;-77
2023/07/02 09:36:33;;;;;;;8.25;7.10;;;;;;;;;;5089136;28;20161;-76
2023/07/02 09:38:59;;;;;;;8.23;6.72;;;;;;;;;;5098489;28;20120;-77
2023/07/02 09:41:24;;;;;;;10.23;6.45;;;;;;;;;;5091661;28;20038;-78
2023/07/02 09:43:50;;;;;;;9.10;5.97;;;;;;;;;;5096727;27;20035;-77
2023/07/02 09:46:15;;;;;;;7.40;6.18;;;;;;;;;;5091389;27;20110;-79
2023/07/02 09:48:41;;;;;;;8.90;7.00;;;;;;;;;;5099933;28;20435;-78
2023/07/02 09:51:06;;;;;;;9.68;6.57;;;;;;;;;;5099548;28;20084;-79
2023/07/02 09:53:31;;;;;;;8.43;6.55;;;;;;;;;;5098491;28;20198;-78
2023/07/02 09:55:57;;;;;;;8.55;7.47;;;;;;;;;;5100406;28;20030;-77
2023/07/02 09:58:22;;;;;;;8.23;6.82;;;;;;;;;;5101955;27;20031;-79
2023/07/02 10:00:47;;;;;;;7.97;6.65;;;;;;;;;;5101852;28;20019;-76
2023/07/02 10:03:13;;;;;;;8.13;7.30;;;;;;;;;;5101618;28;20028;-77
2023/07/02 10:05:39;;;;;;;10.40;7.43;;;;;;;;;;5089488;27;20112;-75
2023/07/02 10:08:13;;;;;;;8.85;6.85;;;;;;;;;;5090702;28;20069;-77
2023/07/02 10:10:38;;;;;;;9.65;7.05;;;;;;;;;;5096005;27;20043;-77
2023/07/02 10:13:04;;;;;;;9.80;7.45;;;;;;;;;;5088143;27;20342;-79
2023/07/02 10:15:31;;;;;;;10.93;7.75;;;;;;;;;;5087439;28;20081;-76
2023/07/02 10:18:00;;;;;;;8.35;7.43;;;;;;;;;;5092024;28;20027;-77
2023/07/02 10:20:33;;;;;;;10.88;6.97;;;;;;;;;;5091728;28;20023;-77
2023/07/02 10:22:59;;;;;;;10.05;8.70;;;;;;;;;;5093970;28;20035;-79
2023/07/02 10:25:25;;;;;;;9.75;7.63;;;;;;;;;;5097833;27;20034;-78
2023/07/02 10:27:51;;;;;;;9.63;7.10;;;;;;;;;;5100617;28;20042;-76
2023/07/02 10:30:16;;;;;;;12.40;7.30;;;;;;;;;;5101046;28;20482;-77
2023/07/02 10:32:41;;;;;;;9.45;7.22;;;;;;;;;;5101519;28;20023;-78
2023/07/02 10:35:14;;;;;;;7.95;7.00;;;;;;;;;;5094413;28;20066;-80
2023/07/02 10:37:39;;;;;;;10.30;7.28;;;;;;;;;;5095910;28;20026;-76
2023/07/02 10:40:09;;;;;;;9.05;7.10;;;;;;;;;;5089641;28;20024;-79
2023/07/02 10:42:55;;;;;;;8.82;7.25;;;;;;;;;;5099239;27;20185;-76
2023/07/02 10:45:20;;;;;;;9.18;7.18;;;;;;;;;;5085357;28;20032;-76
2023/07/02 10:47:46;;;;;;;8.07;7.22;;;;;;;;;;5086099;28;20046;-76
2023/07/02 10:50:14;;;;;;;7.22;6.32;;;;;;;;;;5089374;28;20035;-79
2023/07/02 10:52:39;;;;;;;10.75;7.50;;;;;;;;;;5097571;28;20023;-81
2023/07/02 10:55:05;;;;;;;11.10;7.55;;;;;;;;;;5091631;28;20093;-79
2023/07/02 10:57:31;;;;;;;8.35;7.35;;;;;;;;;;5089334;28;20490;-78
2023/07/02 11:00:03;;;;;;;9.98;8.95;;;;;;;;;;5100536;28;21099;-81
2023/07/02 11:02:33;;;;;;;9.90;8.93;;;;;;;;;;5086756;28;20051;-77
2023/07/02 11:04:59;;;;;;;10.13;8.98;;;;;;;;;;5088502;27;20427;-78
2023/07/02 11:07:25;;;;;;;11.30;9.93;;;;;;;;;;5095199;27;20130;-82
2023/07/02 11:09:51;;;;;;;11.50;10.30;;;;;;;;;;5096536;28;20057;-81
2023/07/02 11:12:16;;;;;;;12.32;11.02;;;;;;;;;;5087991;28;20023;-77
2023/07/02 11:14:42;;;;;;;13.90;11.70;;;;;;;;;;5083204;28;20090;-75
2023/07/02 11:17:07;;;;;;;13.38;11.98;;;;;;;;;;5084669;28;20088;-77
2023/07/02 11:19:33;;;;;;;13.30;11.93;;;;;;;;;;5094976;28;22689;-78
2023/07/02 11:21:58;;;;;;;14.10;12.60;;;;;;;;;;5090009;28;20461;-79
2023/07/02 11:24:30;;;;;;;15.15;13.63;;;;;;;;;;5094256;28;20685;-78
2023/07/02 11:26:56;;;;;;;15.68;14.02;;;;;;;;;;5093891;28;20020;-78
2023/07/02 11:29:21;;;;;;;15.35;13.88;;;;;;;;;;5091411;28;20034;-79
2023/07/02 11:31:47;;;;;;;21.42;12.60;;;;;;;;;;5095903;28;20023;-78
2023/07/02 11:34:16;;;;;;;16.20;12.57;;;;;;;;;;5092202;28;20353;-76
2023/07/02 11:36:41;;;;;;;17.83;11.88;;;;;;;;;;5089789;28;20032;-75
2023/07/02 11:39:07;;;;;;;11.68;9.35;;;;;;;;;;5098642;28;20035;-76
2023/07/02 11:41:39;;;;;;;20.25;10.88;;;;;;;;;;5086534;28;20113;-78
2023/07/02 11:44:04;;;;;;;15.70;10.02;;;;;;;;;;5092758;28;20527;-78
2023/07/02 11:46:30;;;;;;;18.33;10.75;;;;;;;;;;5096670;28;20554;-75
2023/07/02 11:48:56;;;;;;;15.38;10.80;;;;;;;;;;5095760;28;20024;-75
2023/07/02 11:51:21;;;;;;;14.93;10.95;;;;;;;;;;5094796;28;20031;-74
2023/07/02 11:53:47;;;;;;;19.73;15.45;;;;;;;;;;5100441;28;20527;-76
2023/07/02 11:56:13;;;;;;;18.48;15.38;;;;;;;;;;5096638;28;20027;-74
2023/07/02 11:58:38;;;;;;;19.73;15.18;;;;;;;;;;5090350;28;20016;-75
2023/07/02 12:01:04;;;;;;;15.27;13.43;;;;;;;;;;5093212;28;20038;-75
2023/07/02 12:03:30;;;;;;;15.27;13.68;;;;;;;;;;5102592;27;20034;-78
2023/07/02 12:05:55;;;;;;;17.45;15.32;;;;;;;;;;5092258;28;20137;-77
2023/07/02 12:08:21;;;;;;;19.10;15.27;;;;;;;;;;5099455;28;20221;-77
2023/07/02 12:10:46;;;;;;;16.92;15.23;;;;;;;;;;5094194;27;20046;-76
2023/07/02 12:13:11;;;;;;;16.10;14.25;;;;;;;;;;5090470;27;20019;-80
2023/07/02 12:15:37;;;;;;;15.77;14.07;;;;;;;;;;5093195;28;21108;-79
2023/07/02 12:18:02;;;;;;;15.38;13.73;;;;;;;;;;5093360;28;20032;-78
2023/07/02 12:20:27;;;;;;;14.20;12.77;;;;;;;;;;5096261;28;20043;-79
2023/07/02 12:22:53;;;;;;;16.23;11.43;;;;;;;;;;5101434;27;20291;-77
2023/07/02 12:25:18;;;;;;;16.30;10.27;;;;;;;;;;5093916;27;20028;-78
2023/07/02 12:27:44;;;;;;;13.02;10.05;;;;;;;;;;5100588;28;20131;-79
2023/07/02 12:30:09;;;;;;;13.23;10.00;;;;;;;;;;5102990;27;20023;-79
2023/07/02 12:32:35;;;;;;;12.85;10.30;;;;;;;;;;5096965;28;20059;-78
2023/07/02 12:35:01;;;;;;;10.95;8.90;;;;;;;;;;5091077;28;20031;-80
2023/07/02 12:37:26;;;;;;;13.10;9.85;;;;;;;;;;5096385;28;20024;-81
2023/07/02 12:39:52;;;;;;;17.40;8.90;;;;;;;;;;5090070;27;20028;-80
2023/07/02 12:42:17;;;;;;;15.93;8.55;;;;;;;;;;5092449;27;20055;-77
2023/07/02 12:44:43;;;;;;;13.85;8.85;;;;;;;;;;5088890;28;20045;-77
2023/07/02 12:47:08;;;;;;;11.10;9.18;;;;;;;;;;5088099;27;20573;-77
2023/07/02 12:49:34;;;;;;;11.27;8.48;;;;;;;;;;5087557;28;20035;-76
2023/07/02 12:51:59;;;;;;;9.52;8.25;;;;;;;;;;5084434;28;20182;-76
2023/07/02 12:54:25;;;;;;;12.43;8.48;;;;;;;;;;5083554;28;20017;-76
2023/07/02 12:56:50;;;;;;;13.25;9.43;;;;;;;;;;5084750;27;20030;-77
2023/07/02 12:59:16;;;;;;;11.38;10.18;;;;;;;;;;5089545;27;20019;-78
2023/07/02 13:01:41;;;;;;;15.23;10.32;;;;;;;;;;5091095;27;20031;-76
2023/07/02 13:04:06;;;;;;;16.00;12.38;;;;;;;;;;5090576;28;20028;-76
2023/07/02 13:06:39;;;;;;;15.25;13.60;;;;;;;;;;5089618;28;20126;-78
2023/07/02 13:09:05;;;;;;;15.82;14.15;;;;;;;;;;5088228;28;20030;-77
2023/07/02 13:11:31;;;;;;;17.92;15.55;;;;;;;;;;5090006;28;20023;-76
2023/07/02 13:13:56;;;;;;;15.38;13.82;;;;;;;;;;5090178;28;20399;-76
2023/07/02 13:16:21;;;;;;;16.20;14.30;;;;;;;;;;5086065;28;20191;-77
2023/07/02 13:18:47;;;;;;;15.10;13.50;;;;;;;;;;5086564;28;20035;-78
2023/07/02 13:21:12;;;;;;;17.65;13.77;;;;;;;;;;5088767;28;20028;-77
2023/07/02 13:23:38;;;;;;;17.73;15.55;;;;;;;;;;5088661;28;20035;-76
2023/07/02 13:26:03;;;;;;;16.88;15.07;;;;;;;;;;5087915;28;20055;-79
2023/07/02 13:28:28;;;;;;;17.63;15.40;;;;;;;;;;5084170;27;20031;-78
2023/07/02 13:30:54;;;;;;;16.08;14.43;;;;;;;;;;5083407;28;20043;-78
2023/07/02 13:33:19;;;;;;;16.27;14.52;;;;;;;;;;5084219;28;20080;-79
2023/07/02 13:35:45;;;;;;;17.70;14.95;;;;;;;;;;5084587;28;20083;-80
2023/07/02 13:38:10;;;;;;;18.80;15.20;;;;;;;;;;5083274;28;20042;-80
2023/07/02 13:40:36;;;;;;;18.83;17.05;;;;;;;;;;5085196;28;20434;-78
2023/07/02 13:43:03;;;;;;;18.75;16.75;;;;;;;;;;5082765;28;20450;-79
2023/07/02 13:45:28;;;;;;;18.35;16.55;;;;;;;;;;5086180;28;20024;-77
2023/07/02 13:47:53;;;;;;;18.60;16.63;;;;;;;;;;5084919;28;20031;-78
2023/07/02 13:50:19;;;;;;;19.83;17.83;;;;;;;;;;5085247;28;20093;-79
2023/07/02 13:52:46;;;;;;;19.50;17.75;;;;;;;;;;5082153;27;20028;-79
2023/07/02 13:55:11;;;;;;;18.25;16.42;;;;;;;;;;5085590;28;20027;-79
2023/07/02 13:57:37;;;;;;;18.48;16.58;;;;;;;;;;5086332;28;20039;-80
2023/07/02 14:00:04;;;;;;;17.98;16.27;;;;;;;;;;5094325;28;20031;-78
2023/07/02 14:02:31;;;;;;;17.48;15.68;;;;;;;;;;5088114;28;20351;-78
2023/07/02 14:04:57;;;;;;;16.77;15.18;;;;;;;;;;5088625;28;20023;-76
2023/07/02 14:07:22;;;;;;;16.50;14.77;;;;;;;;;;5094401;28;20047;-77
2023/07/02 14:09:47;;;;;;;17.08;15.48;;;;;;;;;;5096466;27;20042;-77
2023/07/02 14:12:13;;;;;;;16.33;14.60;;;;;;;;;;5096753;27;20038;-76
2023/07/02 14:14:39;;;;;;;17.98;15.57;;;;;;;;;;5101568;28;20027;-78
2023/07/02 14:17:04;;;;;;;16.67;15.10;;;;;;;;;;5102874;28;20035;-75
2023/07/02 14:19:30;;;;;;;17.45;15.77;;;;;;;;;;5096894;28;20087;-83
2023/07/02 14:21:55;;;;;;;17.90;16.10;;;;;;;;;;5089193;28;20453;-77
2023/07/02 14:24:20;;;;;;;18.55;16.70;;;;;;;;;;5088379;28;20067;-81
2023/07/02 14:26:46;;;;;;;17.05;15.45;;;;;;;;;;5100059;28;20019;-76
2023/07/02 14:29:11;;;;;;;18.98;16.98;;;;;;;;;;5100966;28;20431;-78